Time;durP1;ratioP1;P1;durP2;ratioP2;P2;SDS_P1;SDS_P2;PMS_P1;PMS_P2;Temp;Humidity;BMP_temperature;BMP_pressure;BME280_temperature;BME280_humidity;BME280_pressure;Samples;Min_cycle;Max_cycle;Signal;HPM_P1;HPM_P2
2023/08/17 00:00:15;;;;;;;3.70;3.60;;;;;;;;;;5096230;28;20783;-64
2023/08/17 00:02:41;;;;;;;3.57;3.47;;;;;;;;;;5095199;28;20417;-64
2023/08/17 00:05:10;;;;;;;7.77;3.10;;;;;;;;;;5095595;28;20526;-64
2023/08/17 00:07:38;;;;;;;3.50;3.40;;;;;;;;;;5095494;28;20999;-64
2023/08/17 00:10:05;;;;;;;5.63;3.50;;;;;;;;;;5095940;28;20964;-64
2023/08/17 00:12:31;;;;;;;3.10;3.00;;;;;;;;;;5095791;28;20430;-64
2023/08/17 00:14:59;;;;;;;6.00;3.30;;;;;;;;;;5095754;28;20467;-64
2023/08/17 00:17:25;;;;;;;3.33;3.23;;;;;;;;;;5095732;28;20407;-64
2023/08/17 00:19:51;;;;;;;3.40;3.17;;;;;;;;;;5095698;28;20939;-64
2023/08/17 00:22:17;;;;;;;3.80;3.70;;;;;;;;;;5095214;28;20419;-64
2023/08/17 00:24:44;;;;;;;4.07;3.77;;;;;;;;;;5095521;28;20440;-64
2023/08/17 00:27:11;;;;;;;4.30;3.63;;;;;;;;;;5095773;28;20417;-64
2023/08/17 00:29:37;;;;;;;4.43;3.97;;;;;;;;;;5095399;28;20517;-64
2023/08/17 00:32:03;;;;;;;8.90;4.07;;;;;;;;;;5094247;28;20796;-64
2023/08/17 00:34:29;;;;;;;3.87;3.63;;;;;;;;;;5094066;28;20435;-64
2023/08/17 00:36:58;;;;;;;4.20;3.73;;;;;;;;;;5095510;28;20423;-64
2023/08/17 00:39:24;;;;;;;3.63;3.30;;;;;;;;;;5095438;28;20884;-64
2023/08/17 00:41:50;;;;;;;3.77;3.40;;;;;;;;;;5095302;28;20509;-64
2023/08/17 00:44:16;;;;;;;4.37;4.07;;;;;;;;;;5095197;28;20968;-64
2023/08/17 00:46:42;;;;;;;3.97;3.87;;;;;;;;;;5094869;28;20418;-64
2023/08/17 00:49:11;;;;;;;4.83;3.97;;;;;;;;;;5095062;28;20968;-64
2023/08/17 00:51:37;;;;;;;4.57;3.90;;;;;;;;;;5095099;28;20424;-64
2023/08/17 00:54:03;;;;;;;4.27;3.90;;;;;;;;;;5095046;28;20437;-64
2023/08/17 00:56:29;;;;;;;4.37;3.97;;;;;;;;;;5093756;28;20434;-64
2023/08/17 00:58:55;;;;;;;3.83;3.60;;;;;;;;;;5094680;28;20404;-64
2023/08/17 01:01:24;;;;;;;3.90;3.73;;;;;;;;;;5094740;28;20410;-64
2023/08/17 01:03:50;;;;;;;3.50;3.30;;;;;;;;;;5094853;28;20968;-64
2023/08/17 01:06:16;;;;;;;4.37;4.03;;;;;;;;;;5093572;28;20447;-64
2023/08/17 01:08:43;;;;;;;5.13;4.60;;;;;;;;;;5094926;28;20466;-64
2023/08/17 01:11:21;;;;;;;4.00;3.80;;;;;;;;;;5094680;28;20402;-64
2023/08/17 01:13:47;;;;;;;4.33;3.93;;;;;;;;;;5094818;28;20926;-64
2023/08/17 01:16:22;;;;;;;5.17;4.10;;;;;;;;;;5094988;28;20438;-64
2023/08/17 01:18:52;;;;;;;7.97;4.43;;;;;;;;;;5094783;28;20753;-64
2023/08/17 01:21:24;;;;;;;5.47;4.97;;;;;;;;;;5094815;28;20785;-64
2023/08/17 01:23:51;;;;;;;5.80;5.40;;;;;;;;;;5094802;28;20389;-64
2023/08/17 01:26:17;;;;;;;5.33;4.20;;;;;;;;;;5093197;28;20402;-64
2023/08/17 01:28:44;;;;;;;4.90;4.60;;;;;;;;;;5094484;28;20933;-64
2023/08/17 01:31:20;;;;;;;7.17;4.50;;;;;;;;;;5093154;28;20419;-64
2023/08/17 01:33:52;;;;;;;5.53;5.03;;;;;;;;;;5094470;28;20410;-64
2023/08/17 01:36:20;;;;;;;6.00;5.50;;;;;;;;;;5094373;28;20419;-64
2023/08/17 01:38:46;;;;;;;5.37;4.97;;;;;;;;;;5094462;28;20426;-64
2023/08/17 01:41:15;;;;;;;8.50;4.70;;;;;;;;;;5094248;28;20421;-64
2023/08/17 01:43:45;;;;;;;5.30;4.90;;;;;;;;;;5094388;28;20415;-64
2023/08/17 01:46:14;;;;;;;4.77;4.57;;;;;;;;;;5094161;28;20484;-64
2023/08/17 01:48:40;;;;;;;4.47;4.30;;;;;;;;;;5094087;28;20465;-64
2023/08/17 01:51:06;;;;;;;4.67;4.37;;;;;;;;;;5094164;28;20798;-64
2023/08/17 01:53:31;;;;;;;5.10;4.17;;;;;;;;;;5094067;28;20423;-64
2023/08/17 01:55:57;;;;;;;4.93;4.47;;;;;;;;;;5094063;28;20431;-64
2023/08/17 01:58:26;;;;;;;6.40;4.20;;;;;;;;;;5093847;28;20407;-64
2023/08/17 02:00:52;;;;;;;4.70;3.80;;;;;;;;;;5094063;28;20447;-64
2023/08/17 02:03:18;;;;;;;4.57;4.27;;;;;;;;;;5092527;28;20427;-64
2023/08/17 02:05:49;;;;;;;4.33;4.10;;;;;;;;;;5093716;28;20440;-64
2023/08/17 02:08:15;;;;;;;4.47;4.27;;;;;;;;;;5093615;28;20993;-64
2023/08/17 02:10:41;;;;;;;5.77;5.37;;;;;;;;;;5093267;28;20515;-64
2023/08/17 02:13:07;;;;;;;5.43;5.03;;;;;;;;;;5092262;28;20434;-64
2023/08/17 02:15:38;;;;;;;4.27;4.10;;;;;;;;;;5093923;28;20456;-64
2023/08/17 02:18:04;;;;;;;6.23;4.20;;;;;;;;;;5093725;28;20893;-64
2023/08/17 02:20:30;;;;;;;4.57;4.27;;;;;;;;;;5093658;28;20441;-64
2023/08/17 02:22:56;;;;;;;5.10;4.80;;;;;;;;;;5093636;28;20416;-64
2023/08/17 02:25:22;;;;;;;9.43;4.60;;;;;;;;;;5093437;28;20435;-64
2023/08/17 02:27:50;;;;;;;4.27;4.00;;;;;;;;;;5093420;28;20472;-64
2023/08/17 02:30:16;;;;;;;4.43;4.23;;;;;;;;;;5093404;28;20441;-64
2023/08/17 02:32:42;;;;;;;4.60;4.30;;;;;;;;;;5093356;28;20785;-64
2023/08/17 02:35:08;;;;;;;10.03;4.83;;;;;;;;;;5092011;28;20414;-64
2023/08/17 02:37:34;;;;;;;6.87;3.87;;;;;;;;;;5092929;28;20429;-64
2023/08/17 02:40:00;;;;;;;4.33;4.10;;;;;;;;;;5092953;28;20410;-64
2023/08/17 02:42:26;;;;;;;5.63;4.40;;;;;;;;;;5093475;28;20402;-64
2023/08/17 02:44:52;;;;;;;6.00;4.97;;;;;;;;;;5093322;28;20445;-64
2023/08/17 02:47:21;;;;;;;5.10;4.83;;;;;;;;;;5093390;28;20423;-64
2023/08/17 02:49:49;;;;;;;4.90;4.60;;;;;;;;;;5093271;28;20418;-64
2023/08/17 02:52:15;;;;;;;6.07;5.67;;;;;;;;;;5093063;28;20920;-64
2023/08/17 02:54:43;;;;;;;7.33;6.63;;;;;;;;;;5093009;28;20413;-64
2023/08/17 02:57:09;;;;;;;7.40;6.83;;;;;;;;;;5093704;28;20404;-64
2023/08/17 02:59:37;;;;;;;8.60;7.80;;;;;;;;;;5093111;28;20427;-64
2023/08/17 03:02:04;;;;;;;8.33;7.33;;;;;;;;;;5093099;28;20432;-64
2023/08/17 03:04:29;;;;;;;9.30;7.60;;;;;;;;;;5093048;28;20465;-64
2023/08/17 03:06:55;;;;;;;11.47;7.00;;;;;;;;;;5093039;28;20510;-64
2023/08/17 03:09:21;;;;;;;8.63;7.90;;;;;;;;;;5092828;28;20468;-64
2023/08/17 03:11:47;;;;;;;7.40;6.90;;;;;;;;;;5092739;28;20970;-64
2023/08/17 03:14:13;;;;;;;7.13;6.73;;;;;;;;;;5093241;28;20421;-64
2023/08/17 03:16:42;;;;;;;8.37;7.60;;;;;;;;;;5092826;28;20425;-64
2023/08/17 03:19:10;;;;;;;7.60;7.00;;;;;;;;;;5093018;28;20460;-64
2023/08/17 03:21:36;;;;;;;9.60;8.27;;;;;;;;;;5093297;28;20421;-64
2023/08/17 03:24:02;;;;;;;13.40;8.43;;;;;;;;;;5096577;28;20425;-64
2023/08/17 03:26:30;;;;;;;10.23;8.33;;;;;;;;;;5097046;28;20467;-64
2023/08/17 03:28:56;;;;;;;9.43;8.40;;;;;;;;;;5096754;28;20488;-64
2023/08/17 03:31:22;;;;;;;8.80;7.97;;;;;;;;;;5097242;28;20930;-64
2023/08/17 03:33:49;;;;;;;15.70;7.97;;;;;;;;;;5095654;28;20471;-64
2023/08/17 03:36:17;;;;;;;9.03;8.13;;;;;;;;;;5097144;28;20432;-64
2023/08/17 03:38:43;;;;;;;10.40;8.90;;;;;;;;;;5096825;28;20451;-64
2023/08/17 03:41:11;;;;;;;10.00;9.00;;;;;;;;;;5096652;28;20481;-64
2023/08/17 03:43:37;;;;;;;11.57;9.60;;;;;;;;;;5096663;28;20771;-64
2023/08/17 03:46:07;;;;;;;22.77;9.67;;;;;;;;;;5096719;28;20523;-64
2023/08/17 03:48:33;;;;;;;13.33;10.77;;;;;;;;;;5095283;28;20502;-64
2023/08/17 03:51:01;;;;;;;10.37;9.13;;;;;;;;;;5096445;28;20458;-64
2023/08/17 03:53:27;;;;;;;11.77;9.97;;;;;;;;;;5096296;28;20415;-64
2023/08/17 03:55:53;;;;;;;15.50;12.13;;;;;;;;;;5096247;28;20430;-64
2023/08/17 03:58:19;;;;;;;15.43;10.70;;;;;;;;;;5096604;28;20891;-64
2023/08/17 04:00:51;;;;;;;14.90;13.27;;;;;;;;;;5095838;28;20516;-66
2023/08/17 04:03:17;;;;;;;14.77;13.10;;;;;;;;;;5095745;28;20448;-66
2023/08/17 04:05:43;;;;;;;14.67;12.43;;;;;;;;;;5095579;28;20953;-66
2023/08/17 04:08:09;;;;;;;13.47;11.20;;;;;;;;;;5095365;28;20465;-66
2023/08/17 04:10:35;;;;;;;20.73;14.00;;;;;;;;;;5095821;28;20506;-65
2023/08/17 04:13:04;;;;;;;18.90;14.03;;;;;;;;;;5095478;28;20429;-65
2023/08/17 04:15:30;;;;;;;24.13;15.70;;;;;;;;;;5094673;28;20412;-65
2023/08/17 04:17:56;;;;;;;23.07;14.50;;;;;;;;;;5095374;28;20462;-66
2023/08/17 04:20:22;;;;;;;20.20;15.07;;;;;;;;;;5095609;28;20498;-65
2023/08/17 04:22:48;;;;;;;23.73;16.20;;;;;;;;;;5095422;28;20428;-65
2023/08/17 04:25:14;;;;;;;21.57;15.83;;;;;;;;;;5095581;28;20420;-65
2023/08/17 04:27:40;;;;;;;25.30;15.70;;;;;;;;;;5095395;28;20474;-67
2023/08/17 04:30:08;;;;;;;25.40;16.70;;;;;;;;;;5095066;28;20403;-67
2023/08/17 04:32:34;;;;;;;21.20;15.23;;;;;;;;;;5095522;28;20907;-67
2023/08/17 04:35:01;;;;;;;20.30;14.53;;;;;;;;;;5094402;28;20464;-67
2023/08/17 04:37:27;;;;;;;22.50;14.67;;;;;;;;;;5095205;28;20408;-67
2023/08/17 04:39:53;;;;;;;19.80;14.43;;;;;;;;;;5095389;28;20406;-67
2023/08/17 04:42:19;;;;;;;23.93;16.20;;;;;;;;;;5095350;28;20416;-68
2023/08/17 04:44:46;;;;;;;25.20;16.00;;;;;;;;;;5095152;28;20426;-67
2023/08/17 04:47:11;;;;;;;23.27;15.63;;;;;;;;;;5094666;28;20407;-67
2023/08/17 04:49:37;;;;;;;23.07;14.57;;;;;;;;;;5095126;28;20455;-67
2023/08/17 04:52:04;;;;;;;21.03;15.23;;;;;;;;;;5093744;28;20846;-67
2023/08/17 04:54:30;;;;;;;26.90;17.57;;;;;;;;;;5094047;28;20577;-67
2023/08/17 04:56:56;;;;;;;26.60;16.97;;;;;;;;;;5094709;28;20408;-67
2023/08/17 04:59:22;;;;;;;26.33;17.90;;;;;;;;;;5093261;28;20424;-67
2023/08/17 05:01:55;;;;;;;22.33;16.13;;;;;;;;;;5093593;28;20475;-67
2023/08/17 05:04:21;;;;;;;24.13;16.67;;;;;;;;;;5094944;28;20426;-68
2023/08/17 05:06:47;;;;;;;17.63;14.63;;;;;;;;;;5095118;28;20440;-68
2023/08/17 05:09:15;;;;;;;20.10;15.90;;;;;;;;;;5094571;28;20465;-68
2023/08/17 05:11:41;;;;;;;25.93;17.80;;;;;;;;;;5093280;28;20999;-68
2023/08/17 05:14:08;;;;;;;21.07;16.57;;;;;;;;;;5094641;28;20413;-68
2023/08/17 05:16:34;;;;;;;20.67;17.30;;;;;;;;;;5094835;28;20783;-68
2023/08/17 05:19:00;;;;;;;29.47;18.23;;;;;;;;;;5094578;28;20409;-68
2023/08/17 05:21:27;;;;;;;24.03;16.97;;;;;;;;;;5094079;28;20879;-68
2023/08/17 05:23:56;;;;;;;26.53;16.40;;;;;;;;;;5094349;28;20415;-68
2023/08/17 05:26:25;;;;;;;25.60;17.30;;;;;;;;;;5094424;28;20528;-68
2023/08/17 05:28:53;;;;;;;25.10;17.10;;;;;;;;;;5094486;28;20869;-68
2023/08/17 05:31:19;;;;;;;22.47;16.87;;;;;;;;;;5094155;28;20428;-68
2023/08/17 05:33:47;;;;;;;24.77;16.80;;;;;;;;;;5094502;28;20398;-68
2023/08/17 05:36:14;;;;;;;22.97;17.00;;;;;;;;;;5094306;28;20551;-68
2023/08/17 05:38:42;;;;;;;24.47;19.97;;;;;;;;;;5094621;28;20491;-68
2023/08/17 05:41:09;;;;;;;22.93;16.50;;;;;;;;;;5093357;28;20458;-68
2023/08/17 05:43:35;;;;;;;29.43;18.60;;;;;;;;;;5093904;28;20916;-68
2023/08/17 05:46:01;;;;;;;22.00;17.07;;;;;;;;;;5093908;28;20433;-66
2023/08/17 05:48:27;;;;;;;28.10;16.53;;;;;;;;;;5093966;28;20460;-67
2023/08/17 05:50:55;;;;;;;28.33;17.53;;;;;;;;;;5094110;28;20418;-66
2023/08/17 05:53:21;;;;;;;26.53;19.70;;;;;;;;;;5093694;28;20416;-66
2023/08/17 05:55:47;;;;;;;76.40;49.27;;;;;;;;;;5093578;28;20419;-66
2023/08/17 05:58:13;;;;;;;27.33;20.27;;;;;;;;;;5093079;28;20475;-66
2023/08/17 06:00:39;;;;;;;66.97;40.93;;;;;;;;;;5093513;28;20482;-66
2023/08/17 06:03:08;;;;;;;86.47;51.33;;;;;;;;;;5093259;28;20470;-66
2023/08/17 06:05:34;;;;;;;44.23;27.80;;;;;;;;;;5092146;28;20424;-67
2023/08/17 06:08:01;;;;;;;153.90;90.03;;;;;;;;;;5092446;28;20977;-66
2023/08/17 06:10:29;;;;;;;43.00;29.37;;;;;;;;;;5092239;28;20406;-66
2023/08/17 06:12:58;;;;;;;68.57;45.23;;;;;;;;;;5092574;28;20467;-65
2023/08/17 06:15:25;;;;;;;28.67;21.67;;;;;;;;;;5091664;28;20448;-66
2023/08/17 06:17:51;;;;;;;20.17;16.60;;;;;;;;;;5093777;28;20421;-66
2023/08/17 06:20:17;;;;;;;28.23;16.70;;;;;;;;;;5093338;28;20818;-66
2023/08/17 06:22:43;;;;;;;19.73;16.27;;;;;;;;;;5092905;28;20444;-66
2023/08/17 06:25:09;;;;;;;22.70;18.47;;;;;;;;;;5093451;28;20429;-66
2023/08/17 06:27:35;;;;;;;19.90;15.63;;;;;;;;;;5092765;28;20895;-66
2023/08/17 06:30:06;;;;;;;23.97;18.20;;;;;;;;;;5092952;28;20412;-67
2023/08/17 06:32:32;;;;;;;26.90;20.00;;;;;;;;;;5093145;28;20444;-66
2023/08/17 06:34:58;;;;;;;25.50;17.57;;;;;;;;;;5093256;28;20451;-66
2023/08/17 06:37:24;;;;;;;31.20;20.47;;;;;;;;;;5093075;28;20412;-67
2023/08/17 06:39:50;;;;;;;30.83;18.70;;;;;;;;;;5092280;28;21063;-67
2023/08/17 06:42:16;;;;;;;33.10;21.20;;;;;;;;;;5093396;28;20641;-66
2023/08/17 06:44:42;;;;;;;30.23;21.47;;;;;;;;;;5093307;28;20465;-66
2023/08/17 06:47:08;;;;;;;35.00;21.97;;;;;;;;;;5092449;28;20538;-66
2023/08/17 06:49:37;;;;;;;33.07;22.43;;;;;;;;;;5092652;28;20507;-66
2023/08/17 06:52:03;;;;;;;28.37;19.73;;;;;;;;;;5092971;28;20443;-66
2023/08/17 06:54:30;;;;;;;32.20;20.20;;;;;;;;;;5092627;28;20416;-66
2023/08/17 06:56:56;;;;;;;27.07;18.77;;;;;;;;;;5092265;28;20524;-66
2023/08/17 06:59:22;;;;;;;29.17;20.37;;;;;;;;;;5092588;28;20421;-66
2023/08/17 07:01:48;;;;;;;28.10;18.87;;;;;;;;;;5092345;28;20413;-66
2023/08/17 07:04:14;;;;;;;28.70;19.17;;;;;;;;;;5092089;28;20513;-67
2023/08/17 07:06:41;;;;;;;25.87;18.60;;;;;;;;;;5092101;28;20468;-66
2023/08/17 07:09:07;;;;;;;27.17;18.77;;;;;;;;;;5092143;28;20471;-66
2023/08/17 07:11:33;;;;;;;19.70;17.17;;;;;;;;;;5092611;28;20435;-66
2023/08/17 07:13:59;;;;;;;28.07;20.33;;;;;;;;;;5092667;28;20414;-66
2023/08/17 07:16:25;;;;;;;25.83;19.20;;;;;;;;;;5092445;28;20418;-66
2023/08/17 07:18:53;;;;;;;27.73;19.70;;;;;;;;;;5092255;28;20419;-66
2023/08/17 07:21:19;;;;;;;25.60;18.30;;;;;;;;;;5092848;28;20428;-66
2023/08/17 07:23:46;;;;;;;18.87;16.83;;;;;;;;;;5092432;28;20419;-66
2023/08/17 07:26:12;;;;;;;25.03;18.23;;;;;;;;;;5091889;28;20416;-66
2023/08/17 07:28:38;;;;;;;29.43;19.33;;;;;;;;;;5091924;28;20465;-66
2023/08/17 07:31:07;;;;;;;26.67;18.70;;;;;;;;;;5091849;28;20751;-66
2023/08/17 07:33:33;;;;;;;27.53;17.80;;;;;;;;;;5092091;28;20439;-66
2023/08/17 07:35:59;;;;;;;27.90;19.30;;;;;;;;;;5091922;28;20777;-66
2023/08/17 07:38:25;;;;;;;28.80;19.57;;;;;;;;;;5092281;28;20424;-66
2023/08/17 07:40:51;;;;;;;27.77;18.80;;;;;;;;;;5091411;28;20516;-66
2023/08/17 07:43:19;;;;;;;22.50;18.27;;;;;;;;;;5091253;28;20438;-66
2023/08/17 07:45:45;;;;;;;22.77;17.77;;;;;;;;;;5091688;28;20450;-66
2023/08/17 07:48:11;;;;;;;19.50;17.20;;;;;;;;;;5091976;28;20460;-66
2023/08/17 07:50:38;;;;;;;22.53;17.00;;;;;;;;;;5090892;28;20778;-66
2023/08/17 07:53:04;;;;;;;22.50;18.13;;;;;;;;;;5091662;28;20463;-66
2023/08/17 07:55:30;;;;;;;20.93;17.77;;;;;;;;;;5092300;28;20449;-66
2023/08/17 07:57:58;;;;;;;26.23;20.10;;;;;;;;;;5091572;28;20464;-65
2023/08/17 08:00:24;;;;;;;27.83;18.20;;;;;;;;;;5092245;28;20404;-65
2023/08/17 08:02:50;;;;;;;20.27;16.70;;;;;;;;;;5091804;28;20426;-64
2023/08/17 08:05:16;;;;;;;22.30;17.07;;;;;;;;;;5084226;28;20511;-64
2023/08/17 08:07:44;;;;;;;24.00;15.70;;;;;;;;;;5087512;28;20995;-65
2023/08/17 08:10:10;;;;;;;18.27;15.17;;;;;;;;;;5085794;28;20458;-65
2023/08/17 08:12:36;;;;;;;22.07;17.37;;;;;;;;;;5074911;28;20772;-65
2023/08/17 08:15:02;;;;;;;29.47;16.13;;;;;;;;;;5078242;28;20450;-65
2023/08/17 08:17:28;;;;;;;24.87;16.67;;;;;;;;;;5079033;28;20421;-65
2023/08/17 08:19:55;;;;;;;23.40;17.40;;;;;;;;;;5094645;28;20450;-65
2023/08/17 08:22:21;;;;;;;24.00;17.23;;;;;;;;;;5094014;28;20443;-65
2023/08/17 08:24:47;;;;;;;28.55;19.77;;;;;;;;;;5083627;28;20885;-65
2023/08/17 08:27:12;;;;;;;21.17;17.90;;;;;;;;;;5075135;28;20181;-65
2023/08/17 08:29:39;;;;;;;22.37;18.33;;;;;;;;;;5074933;28;20480;-65
2023/08/17 08:32:08;;;;;;;21.00;16.03;;;;;;;;;;5074891;28;20416;-66
2023/08/17 08:34:34;;;;;;;20.07;15.70;;;;;;;;;;5073180;28;20498;-66
2023/08/17 08:37:00;;;;;;;22.50;16.30;;;;;;;;;;5074036;28;20504;-66
2023/08/17 08:39:29;;;;;;;24.60;16.90;;;;;;;;;;5073453;28;20508;-66
2023/08/17 08:41:55;;;;;;;21.03;16.20;;;;;;;;;;5073274;28;20783;-65
2023/08/17 08:44:21;;;;;;;31.13;19.20;;;;;;;;;;5074054;28;20440;-66
2023/08/17 08:46:47;;;;;;;23.03;17.50;;;;;;;;;;5072844;28;20446;-66
2023/08/17 08:49:14;;;;;;;23.67;18.33;;;;;;;;;;5073848;28;20881;-65
2023/08/17 08:51:42;;;;;;;26.60;18.90;;;;;;;;;;5074081;28;20413;-65
2023/08/17 08:54:12;;;;;;;25.93;19.80;;;;;;;;;;5074099;28;20424;-65
2023/08/17 08:56:41;;;;;;;21.40;16.60;;;;;;;;;;5074038;28;20436;-65
2023/08/17 08:59:08;;;;;;;19.10;16.67;;;;;;;;;;5074110;28;20411;-65
2023/08/17 09:01:34;;;;;;;25.20;20.67;;;;;;;;;;5074089;28;20503;-65
2023/08/17 09:04:00;;;;;;;20.73;17.00;;;;;;;;;;5074123;28;20499;-65
2023/08/17 09:06:27;;;;;;;19.43;15.33;;;;;;;;;;5074205;28;20470;-65
2023/08/17 09:08:53;;;;;;;22.60;17.53;;;;;;;;;;5073859;28;20669;-65
2023/08/17 09:11:21;;;;;;;37.43;27.17;;;;;;;;;;5073705;28;20515;-65
2023/08/17 09:13:47;;;;;;;32.47;24.10;;;;;;;;;;5073915;28;20416;-65
2023/08/17 09:16:13;;;;;;;20.83;17.30;;;;;;;;;;5073822;28;20422;-65
2023/08/17 09:18:42;;;;;;;33.73;21.57;;;;;;;;;;5073952;28;20441;-66
2023/08/17 09:21:08;;;;;;;107.33;56.53;;;;;;;;;;5072441;28;20487;-66
2023/08/17 09:23:40;;;;;;;22.13;19.07;;;;;;;;;;5074132;28;20886;-66
2023/08/17 09:26:09;;;;;;;21.63;18.30;;;;;;;;;;5074244;28;20903;-65
2023/08/17 09:28:40;;;;;;;20.33;15.47;;;;;;;;;;5073943;28;20479;-66
2023/08/17 09:31:08;;;;;;;21.87;15.60;;;;;;;;;;5072745;28;20875;-66
2023/08/17 09:33:35;;;;;;;18.17;15.23;;;;;;;;;;5073944;28;20417;-65
2023/08/17 09:36:01;;;;;;;13.97;12.53;;;;;;;;;;5072461;28;20448;-65
2023/08/17 09:38:27;;;;;;;14.77;12.90;;;;;;;;;;5073667;28;20493;-65
2023/08/17 09:40:53;;;;;;;15.90;13.17;;;;;;;;;;5073708;28;20413;-65
2023/08/17 09:43:22;;;;;;;22.97;16.77;;;;;;;;;;5073487;28;20415;-65
2023/08/17 09:45:52;;;;;;;18.90;15.17;;;;;;;;;;5073563;28;20414;-65
2023/08/17 09:48:18;;;;;;;17.17;15.37;;;;;;;;;;5071381;28;20465;-65
2023/08/17 09:50:47;;;;;;;17.37;13.80;;;;;;;;;;5073263;28;20430;-65
2023/08/17 09:53:17;;;;;;;18.90;14.23;;;;;;;;;;5073452;28;20413;-65
2023/08/17 09:55:44;;;;;;;19.37;13.43;;;;;;;;;;5073170;28;20448;-66
2023/08/17 09:58:14;;;;;;;14.27;12.80;;;;;;;;;;5073102;28;20516;-66
2023/08/17 10:00:44;;;;;;;19.13;12.93;;;;;;;;;;5073179;28;20426;-66
2023/08/17 10:03:10;;;;;;;11.40;10.43;;;;;;;;;;5072771;28;21801;-66
2023/08/17 10:05:40;;;;;;;16.90;12.00;;;;;;;;;;5073283;28;20883;-66
2023/08/17 10:08:07;;;;;;;13.87;11.03;;;;;;;;;;5072721;28;20473;-66
2023/08/17 10:10:35;;;;;;;11.63;9.47;;;;;;;;;;5073159;28;20442;-66
2023/08/17 10:13:08;;;;;;;10.90;9.43;;;;;;;;;;5071445;28;20828;-66
2023/08/17 10:15:38;;;;;;;11.10;8.77;;;;;;;;;;5073014;28;20783;-66
2023/08/17 10:18:15;;;;;;;9.37;8.53;;;;;;;;;;5072329;28;20422;-66
2023/08/17 10:20:47;;;;;;;11.80;10.47;;;;;;;;;;5072314;28;20437;-66
2023/08/17 10:23:17;;;;;;;9.70;8.90;;;;;;;;;;5072644;28;20464;-66
2023/08/17 10:25:44;;;;;;;9.73;8.30;;;;;;;;;;5072491;28;20416;-66
2023/08/17 10:28:10;;;;;;;10.37;8.20;;;;;;;;;;5072652;28;20453;-66
2023/08/17 10:30:37;;;;;;;9.87;7.97;;;;;;;;;;5072906;28;20766;-66
2023/08/17 10:33:04;;;;;;;9.20;8.50;;;;;;;;;;5071939;28;20429;-66
2023/08/17 10:35:31;;;;;;;9.43;7.93;;;;;;;;;;5071993;28;20518;-66
2023/08/17 10:37:58;;;;;;;8.57;7.97;;;;;;;;;;5072243;28;20413;-66
2023/08/17 10:40:28;;;;;;;8.43;7.63;;;;;;;;;;5072018;28;20414;-66
2023/08/17 10:42:55;;;;;;;8.40;7.60;;;;;;;;;;5072305;28;20445;-67
2023/08/17 10:45:31;;;;;;;7.90;7.20;;;;;;;;;;5070950;28;20772;-67
2023/08/17 10:48:01;;;;;;;7.00;6.50;;;;;;;;;;5072335;28;20492;-68
2023/08/17 10:50:27;;;;;;;7.87;7.17;;;;;;;;;;5072033;28;20410;-67
2023/08/17 10:52:56;;;;;;;7.03;6.40;;;;;;;;;;5072420;28;20889;-67
2023/08/17 10:56:00;;;;;;;6.80;6.40;;;;;;;;;;5072185;28;20497;-66
2023/08/17 10:58:28;;;;;;;7.57;7.10;;;;;;;;;;5009974;28;20425;-66
2023/08/17 11:00:56;;;;;;;6.30;5.90;;;;;;;;;;4993914;28;20496;-66
2023/08/17 11:03:26;;;;;;;6.73;6.23;;;;;;;;;;5041272;28;20429;-66
2023/08/17 11:06:00;;;;;;;6.07;5.70;;;;;;;;;;5070861;28;20841;-66
2023/08/17 11:08:29;;;;;;;9.60;6.07;;;;;;;;;;5072038;28;20511;-65
2023/08/17 11:11:05;;;;;;;6.00;5.63;;;;;;;;;;5072155;28;20932;-66
2023/08/17 11:13:32;;;;;;;5.47;5.27;;;;;;;;;;5070573;28;20439;-67
2023/08/17 11:15:59;;;;;;;9.70;6.17;;;;;;;;;;5072175;28;20445;-68
2023/08/17 11:18:25;;;;;;;5.67;5.47;;;;;;;;;;5071731;28;20432;-67
2023/08/17 11:20:52;;;;;;;5.73;5.33;;;;;;;;;;5071777;28;20453;-66
2023/08/17 11:23:20;;;;;;;5.67;5.27;;;;;;;;;;5071760;28;20857;-66
2023/08/17 11:25:51;;;;;;;5.40;5.00;;;;;;;;;;5072109;28;20425;-67
2023/08/17 11:28:19;;;;;;;5.97;4.70;;;;;;;;;;5071820;28;20506;-66
2023/08/17 11:30:56;;;;;;;8.83;4.80;;;;;;;;;;5071670;28;20402;-66
2023/08/17 11:33:25;;;;;;;5.00;4.80;;;;;;;;;;5072121;28;20444;-66
2023/08/17 11:35:51;;;;;;;4.97;4.57;;;;;;;;;;5071858;28;20429;-65
2023/08/17 11:38:17;;;;;;;8.10;4.90;;;;;;;;;;5071653;28;20418;-65
2023/08/17 11:40:43;;;;;;;4.83;4.60;;;;;;;;;;5071696;28;20441;-67
2023/08/17 11:43:09;;;;;;;5.03;4.73;;;;;;;;;;5071797;28;20426;-67
2023/08/17 11:45:37;;;;;;;5.33;5.03;;;;;;;;;;5075300;28;20410;-67
2023/08/17 11:48:07;;;;;;;5.03;4.73;;;;;;;;;;5074453;28;20501;-66
2023/08/17 11:50:33;;;;;;;5.80;4.90;;;;;;;;;;5075502;28;20441;-66
2023/08/17 11:53:02;;;;;;;5.43;4.70;;;;;;;;;;5075265;28;20406;-68
2023/08/17 11:55:28;;;;;;;6.47;5.00;;;;;;;;;;5075468;28;20805;-67
2023/08/17 11:57:54;;;;;;;5.10;4.87;;;;;;;;;;5075354;28;20493;-67
2023/08/17 12:00:21;;;;;;;6.93;5.20;;;;;;;;;;5074823;28;20517;-67
2023/08/17 12:02:47;;;;;;;5.73;5.20;;;;;;;;;;5075264;28;20555;-65
2023/08/17 12:05:16;;;;;;;4.97;4.67;;;;;;;;;;5075193;28;20501;-65
2023/08/17 12:07:44;;;;;;;4.10;4.00;;;;;;;;;;5074684;28;20479;-65
2023/08/17 12:10:11;;;;;;;4.27;3.87;;;;;;;;;;5075187;28;20433;-65
2023/08/17 12:12:38;;;;;;;7.40;4.50;;;;;;;;;;5074986;28;20537;-65
2023/08/17 12:15:04;;;;;;;4.97;4.50;;;;;;;;;;5074749;28;20422;-64
2023/08/17 12:17:30;;;;;;;9.97;4.20;;;;;;;;;;5075126;28;20441;-65
2023/08/17 12:19:59;;;;;;;6.37;3.77;;;;;;;;;;5075098;28;20410;-65
2023/08/17 12:22:28;;;;;;;4.93;4.27;;;;;;;;;;5074023;28;20528;-65
2023/08/17 12:24:56;;;;;;;5.30;4.80;;;;;;;;;;5075174;28;20406;-65
2023/08/17 12:27:24;;;;;;;22.30;15.60;;;;;;;;;;5075108;28;20963;-65
2023/08/17 12:29:50;;;;;;;18.47;13.10;;;;;;;;;;5074948;28;20460;-65
2023/08/17 12:32:20;;;;;;;33.40;23.60;;;;;;;;;;5074947;28;20916;-65
2023/08/17 12:34:47;;;;;;;6.57;5.97;;;;;;;;;;5074244;28;20418;-65
2023/08/17 12:37:18;;;;;;;25.73;15.70;;;;;;;;;;5073248;28;20414;-64
2023/08/17 12:39:44;;;;;;;13.63;10.87;;;;;;;;;;5074617;28;20501;-65
2023/08/17 12:42:13;;;;;;;4.17;3.77;;;;;;;;;;5074833;28;20510;-65
2023/08/17 12:44:39;;;;;;;4.17;3.87;;;;;;;;;;5074654;28;20430;-65
2023/08/17 12:47:08;;;;;;;7.60;4.47;;;;;;;;;;5074312;28;20425;-65
2023/08/17 12:49:34;;;;;;;4.47;4.17;;;;;;;;;;5073246;28;20462;-65
2023/08/17 12:52:00;;;;;;;5.77;4.00;;;;;;;;;;5074553;28;20422;-64
2023/08/17 12:54:26;;;;;;;5.40;4.20;;;;;;;;;;5074895;28;20407;-64
2023/08/17 12:56:54;;;;;;;5.40;4.10;;;;;;;;;;5073633;28;20587;-65
2023/08/17 12:59:20;;;;;;;4.47;3.93;;;;;;;;;;5074615;28;20550;-66
2023/08/17 13:01:46;;;;;;;4.33;3.97;;;;;;;;;;5074487;28;20445;-64
2023/08/17 13:04:12;;;;;;;3.97;3.70;;;;;;;;;;5073939;28;20219;-64
2023/08/17 13:06:38;;;;;;;5.53;4.17;;;;;;;;;;5074201;28;20887;-65
2023/08/17 13:09:05;;;;;;;3.77;3.43;;;;;;;;;;5073937;28;20204;-65
2023/08/17 13:11:31;;;;;;;10.27;4.80;;;;;;;;;;5073963;28;20406;-65
2023/08/17 13:13:57;;;;;;;4.17;3.80;;;;;;;;;;5074108;28;20433;-65
2023/08/17 13:16:23;;;;;;;4.40;4.20;;;;;;;;;;5074320;28;20417;-65
2023/08/17 13:18:50;;;;;;;4.93;4.43;;;;;;;;;;5074233;28;20437;-65
2023/08/17 13:21:19;;;;;;;7.00;4.53;;;;;;;;;;5073964;28;20423;-65
2023/08/17 13:23:45;;;;;;;6.87;4.03;;;;;;;;;;5074038;28;20415;-65
2023/08/17 13:26:11;;;;;;;7.37;4.30;;;;;;;;;;5074276;28;20497;-65
2023/08/17 13:28:37;;;;;;;4.07;3.70;;;;;;;;;;5073973;28;20465;-65
2023/08/17 13:31:03;;;;;;;6.33;3.30;;;;;;;;;;5073984;28;20415;-65
2023/08/17 13:33:29;;;;;;;5.93;3.23;;;;;;;;;;5073877;28;20751;-65
2023/08/17 13:35:58;;;;;;;6.77;4.17;;;;;;;;;;5073880;28;20509;-65
2023/08/17 13:38:24;;;;;;;4.33;3.80;;;;;;;;;;5073791;28;20434;-65
2023/08/17 13:40:55;;;;;;;5.90;3.63;;;;;;;;;;5073697;28;20445;-65
2023/08/17 13:43:21;;;;;;;4.93;4.10;;;;;;;;;;5073678;28;20425;-66
2023/08/17 13:45:47;;;;;;;4.43;3.77;;;;;;;;;;5072238;28;20486;-65
2023/08/17 13:48:13;;;;;;;8.23;4.70;;;;;;;;;;5073417;28;20464;-65
2023/08/17 13:50:39;;;;;;;5.23;4.10;;;;;;;;;;5073364;28;20492;-65
2023/08/17 13:53:05;;;;;;;6.43;3.90;;;;;;;;;;5073389;28;20436;-65
2023/08/17 13:55:34;;;;;;;5.60;4.10;;;;;;;;;;5073451;28;20449;-65
2023/08/17 13:58:00;;;;;;;3.87;3.67;;;;;;;;;;5073245;28;20434;-65
2023/08/17 14:00:29;;;;;;;4.30;4.00;;;;;;;;;;5073262;28;20413;-64
2023/08/17 14:02:55;;;;;;;5.83;5.20;;;;;;;;;;5073269;28;20466;-64
2023/08/17 14:05:23;;;;;;;8.90;4.47;;;;;;;;;;5073118;28;20445;-64
2023/08/17 14:07:49;;;;;;;5.77;5.37;;;;;;;;;;5072086;28;20402;-64
2023/08/17 14:10:15;;;;;;;5.03;4.63;;;;;;;;;;5072673;28;20406;-64
2023/08/17 14:12:41;;;;;;;5.17;4.87;;;;;;;;;;5072968;28;20943;-64
2023/08/17 14:15:07;;;;;;;4.67;4.20;;;;;;;;;;5072721;28;20437;-64
2023/08/17 14:17:36;;;;;;;7.23;5.57;;;;;;;;;;5072959;28;20176;-64
2023/08/17 14:20:04;;;;;;;4.27;4.10;;;;;;;;;;5072883;28;20527;-64
2023/08/17 14:22:30;;;;;;;4.83;4.53;;;;;;;;;;5072835;28;20848;-64
2023/08/17 14:24:56;;;;;;;4.67;4.20;;;;;;;;;;5072779;28;20438;-64
2023/08/17 14:27:26;;;;;;;5.50;5.00;;;;;;;;;;5073049;28;20472;-64
2023/08/17 14:29:52;;;;;;;6.83;4.77;;;;;;;;;;5072674;28;20457;-64